This is the latest recevied weather packets stored in our database for station/object KE4ODN. If no packets are shown the sender has not sent any weather packets the latest 10 day(s).
| Time | Temp. | Humidity | Pressure | Rain* | Wind** | Luminosity | Snow |
|---|---|---|---|---|---|---|---|
| 1777527124 | 18.33° C | 95% | 1011.5 hPa | 0 mm | - | 0 W/m² | - |
| 1777526884 | 18.33° C | 95% | 1011.6 hPa | 0 mm | - | 0 W/m² | - |
| 1777524724 | 18.89° C | 95% | 1011.4 hPa | 0 mm | - | 0 W/m² | - |
| 1777522804 | 18.89° C | 95% | 1011.8 hPa | 0.25 mm | - | 0 W/m² | - |
| 1777521364 | 18.89° C | 95% | 1011.3 hPa | 1.52 mm | - | 0 W/m² | - |
| 1777521124 | 18.89° C | 95% | 1011.2 hPa | 1.78 mm | - | 0 W/m² | - |
| 1777519684 | 19.44° C | 94% | 1011.7 hPa | 2.79 mm | - | 0 W/m² | - |
| 1777518244 | 19.44° C | 93% | 1013.5 hPa | 2.29 mm | - | 0 W/m² | - |
| 1777516804 | 20° C | 90% | 1013.4 hPa | 1.02 mm | - | 0 W/m² | - |
| 1777516324 | 20.56° C | 88% | 1012.8 hPa | 0.76 mm | - | 0 W/m² | - |
| 1777514884 | 22.22° C | 93% | 1011.3 hPa | 0 mm | - | 0 W/m² | - |
| 1777514164 | 22.78° C | 93% | 1011.1 hPa | 0 mm | - | 0 W/m² | - |
| 1777513705 | 22.78° C | 93% | 1010.9 hPa | 0 mm | - | 0 W/m² | - |
| 1777513444 | 22.78° C | 93% | 1010.5 hPa | 0 mm | - | 0 W/m² | - |
| 1777510804 | 22.78° C | 93% | 1010.3 hPa | 0 mm | - | 0 W/m² | - |
| 1777508404 | 23.33° C | 92% | 1010 hPa | 0 mm | - | 0 W/m² | - |
| 1777506964 | 23.89° C | 91% | 1010 hPa | 0 mm | - | 18 W/m² | - |
| 1777506724 | 23.89° C | 91% | 1009.9 hPa | 0 mm | - | 21 W/m² | - |
| 1777506025 | 23.89° C | 91% | 1009.7 hPa | 0 mm | - | 42 W/m² | - |
| 1777503364 | 24.44° C | 89% | 1009.9 hPa | 0 mm | - | 72 W/m² | - |
| 1777502185 | 24.44° C | 90% | 1009.8 hPa | 0 mm | - | 67 W/m² | - |
| 1777500505 | 24.44° C | 88% | 1010 hPa | 0 mm | - | 116 W/m² | - |
| 1777499764 | 24.44° C | 87% | 1010.3 hPa | 0 mm | - | 100 W/m² | - |
| 1777498564 | 25° C | 84% | 1010.3 hPa | 0 mm | - | 128 W/m² | - |
| 1777497604 | 25.56° C | 82% | 1010.2 hPa | 0 mm | - | 258 W/m² | - |
* Rain latest hour (hover to see other rain measurements)
** Current wind speed in m/s (hover to see current wind gust speed)